Latest Weather Observations for Moranbah Airport

IDQ60801

Issued at 1:35 pm EST Saturday 23 August 2014 (issued every 30 minutes, with the page automatically refreshed every 10 minutes)

About weather observations | Map of weather stations | Latest weather observations for QLD | Other Formats
Station Details ID: 034035 Name: MORANBAH AIRPORT Lat: -22.06 Lon: 148.08 Height: 232.2 m
Data from the previous 72 hours. | See also: Recent months at Moranbah Airport
Date/Time
EST
Temp
°C
App
Temp
°C
Dew
Point
Rel
Hum
%
Delta-T
°C
Wind Press
QNH
hPa
Press
MSL
hPa
Rain
since 9 am
mm
Dir
 
Spd
km/h
Gust
km/h
Spd
kts
Gust
kts
23/01:30pm 25.7 21.5 5.8 28 10.3 SSE 17 24 9 13 1019.0 1018.5 0.0
23/01:00pm 24.7 20.6 6.0 30 9.7 S 17 22 9 12 1019.6 1019.1 0.0
23/12:30pm 24.5 19.6 5.3 29 9.8 SSE 20 35 11 19 1020.1 1019.6 0.0
23/12:00pm 23.9 21.0 10.9 44 7.3 SE 17 28 9 15 1020.7 1020.2 0.0
23/11:30am 22.4 19.7 10.5 47 6.6 SE 15 24 8 13 1021.5 1021.0 0.0
23/11:00am 21.5 17.7 9.7 47 6.4 SSE 20 30 11 16 1021.9 1021.4 0.0
23/10:30am 20.5 17.3 11.4 56 5.1 SE 19 28 10 15 1022.2 1021.7 0.0
23/10:00am 19.5 16.7 11.5 60 4.4 SE 17 24 9 13 1022.7 1022.2 0.0
23/09:30am 18.5 15.3 11.8 65 3.7 SE 20 30 11 16 1023.0 1022.5 0.0
23/09:00am 17.2 13.1 11.5 69 3.1 SE 24 30 13 16 1023.0 1022.5 0.0
23/08:30am 16.1 11.6 11.5 74 2.5 SE 26 32 14 17 1022.9 1022.4 0.0
23/08:07am 15.5 11.0 11.3 76 2.3 SE 26 33 14 18 1022.7 1022.2 0.0
23/08:00am 15.3 11.2 11.3 77 2.2 SE 24 33 13 18 1022.6 1022.1 0.0
23/07:52am 15.0 10.9 11.6 80 1.8 SE 24 32 13 17 1022.6 1022.1 0.0
23/07:30am 14.4 10.7 11.4 82 1.6 SE 22 30 12 16 1022.4 1021.9 0.0
23/07:00am 14.0 10.2 11.2 83 1.5 SE 22 28 12 15 1022.0 1021.5 0.0
23/06:30am 13.8 10.6 11.1 84 1.4 SE 19 24 10 13 1021.7 1021.2 0.0
23/06:18am 13.9 10.5 11.2 84 1.4 SE 20 26 11 14 1021.6 1021.1 0.0
23/06:00am 13.9 10.5 11.2 84 1.4 SE 20 26 11 14 1021.2 1020.8 0.0
23/05:30am 13.9 11.2 11.8 87 1.1 SE 17 24 9 13 1020.6 1020.1 0.0
23/05:03am 12.5 10.3 10.9 90 0.8 SE 13 15 7 8 1020.4 1019.9 0.0
23/05:00am 12.4 10.1 10.6 89 0.9 SE 13 15 7 8 1020.4 1019.9 0.0
23/04:47am 12.6 10.4 10.7 88 1.0 SE 13 17 7 9 1020.3 1019.8 0.0
23/04:32am 13.1 10.3 11.2 88 1.0 SE 17 20 9 11 1020.2 1019.7 0.0
23/04:30am 13.2 10.4 11.3 88 1.0 SE 17 20 9 11 1020.1 1019.6 0.0
23/04:00am 13.4 10.0 11.3 87 1.1 SE 20 26 11 14 1019.9 1019.4 0.0
23/03:30am 13.7 10.3 11.4 86 1.2 SE 20 24 11 13 1019.9 1019.4 0.0
23/03:00am 13.9 10.6 11.6 86 1.2 SSE 20 24 11 13 1019.9 1019.4 0.0
23/02:30am 9.6 8.1 8.4 92 0.6 ENE 6 7 3 4 1020.0 1019.5 0.0
23/02:00am 10.0 8.1 9.1 94 0.4 ESE 9 11 5 6 1020.0 1019.5 0.0
23/01:30am 10.2 10.1 9.6 96 0.3 CALM 0 4 0 2 1020.1 1019.6 0.0
23/01:00am 9.9 9.6 8.7 92 0.6 CALM 0 0 0 0 1020.6 1020.1 0.0
23/12:30am 11.1 11.2 10.0 93 0.6 CALM 0 0 0 0 1020.7 1020.2 0.0
23/12:00am 12.3 12.6 10.9 91 0.7 W 0 0 0 0 1020.4 1019.9 0.0
 
Date/Time
EST
Temp
°C
App
Temp
°C
Dew
Point
Rel
Hum
%
Delta-T
°C
Wind Press
QNH
hPa
Press
MSL
hPa
Rain
since 9 am
mm
Dir
 
Spd
km/h
Gust
km/h
Spd
kts
Gust
kts
22/11:30pm 12.8 11.3 10.7 87 1.1 SSW 9 13 5 7 1020.3 1019.8 0.0
22/11:00pm 13.9 11.3 12.1 89 1.0 SSE 17 20 9 11 1019.8 1019.3 0.0
22/10:30pm 12.8 10.9 10.5 86 1.2 S 11 13 6 7 1020.6 1020.1 0.0
22/10:00pm 12.5 11.6 10.6 88 1.0 S 6 7 3 4 1020.7 1020.2 0.0
22/09:30pm 13.3 12.3 11.0 86 1.2 SW 7 9 4 5 1020.9 1020.5 0.0
22/09:00pm 13.8 14.2 11.1 84 1.4 CALM 0 0 0 0 1020.9 1020.5 0.0
22/08:30pm 14.0 14.4 11.2 83 1.5 CALM 0 0 0 0 1021.0 1020.6 0.0
22/08:00pm 14.7 15.2 11.5 81 1.7 CALM 0 0 0 0 1020.9 1020.5 0.0
22/07:30pm 14.8 15.0 10.4 75 2.3 CALM 0 0 0 0 1020.6 1020.1 0.0
22/07:00pm 16.7 16.0 11.4 71 2.9 N 6 6 3 3 1020.2 1019.7 0.0
22/06:30pm 18.1 17.4 11.9 67 3.4 N 7 9 4 5 1020.0 1019.5 0.0
22/06:00pm 18.8 18.3 11.9 64 3.8 NE 6 7 3 4 1019.8 1019.3 0.0
22/05:30pm 19.7 17.8 11.7 60 4.5 ENE 13 17 7 9 1019.3 1018.8 0.0
22/05:00pm 20.0 17.7 11.7 59 4.6 E 15 19 8 10 1019.3 1018.8 0.0
22/04:30pm 20.0 17.8 12.0 60 4.5 E 15 28 8 15 1019.2 1018.7 0.0
22/04:00pm 20.0 17.8 12.0 60 4.5 E 15 22 8 12 1019.0 1018.5 0.0
22/03:30pm 20.7 18.6 12.4 59 4.7 SE 15 22 8 12 1019.2 1018.7 0.0
22/03:00pm 20.4 17.2 11.9 58 4.8 SE 20 26 11 14 1019.2 1018.7 0.0
22/02:30pm 19.9 17.2 12.9 64 4.0 ESE 19 28 10 15 1019.4 1018.9 0.0
22/02:00pm 18.5 16.4 12.5 68 3.4 SE 15 20 8 11 1020.0 1019.5 0.0
22/01:30pm 17.9 16.2 12.4 70 3.1 SE 13 17 7 9 1020.5 1020.0 0.0
22/01:00pm 17.8 15.0 12.7 72 2.9 ESE 19 22 10 12 1020.8 1020.3 0.0
22/12:30pm 16.9 15.2 12.4 75 2.5 ESE 13 17 7 9 1021.5 1021.0 0.0
22/12:06pm 16.7 14.3 12.5 76 2.3 ESE 17 24 9 13 1021.8 1021.3 0.0
22/12:00pm 16.4 13.4 12.4 77 2.2 ESE 20 24 11 13 1022.0 1021.5 0.0
22/11:30am 16.6 14.2 12.8 78 2.1 ESE 17 22 9 12 1022.6 1022.1 0.0
22/11:00am 16.2 13.2 12.4 78 2.1 ESE 20 28 11 15 1023.2 1022.7 0.0
22/10:30am 16.2 12.4 12.4 78 2.1 SE 24 32 13 17 1023.0 1022.5 0.0
22/10:00am 15.8 12.3 12.2 79 2.0 ESE 22 30 12 16 1023.3 1022.8 0.0
22/09:30am 15.5 11.2 12.1 80 1.9 SE 26 32 14 17 1023.2 1022.7 0.0
22/09:00am 15.5 12.6 12.3 81 1.8 SE 19 26 10 14 1023.1 1022.6 -
22/08:30am 15.5 12.5 12.4 82 1.7 SE 20 28 11 15 1022.9 1022.4 -
22/08:12am 15.2 11.7 12.1 82 1.7 SE 22 30 12 16 1022.6 1022.1 -
22/08:00am 15.1 11.3 12.4 84 1.5 SE 24 30 13 16 1022.2 1021.7 -
22/07:30am 14.7 12.6 12.4 86 1.3 SE 15 22 8 12 1022.2 1021.7 -
22/07:00am 14.3 11.8 12.3 88 1.1 SE 17 20 9 11 1021.7 1021.2 -
22/06:30am 14.0 11.5 12.2 89 1.0 ESE 17 20 9 11 1021.1 1020.7 -
22/06:00am 13.8 11.2 12.0 89 1.0 SE 17 26 9 14 1020.6 1020.1 -
22/05:30am 13.9 11.3 12.1 89 1.0 SE 17 22 9 12 1020.1 1019.6 -
22/05:00am 13.8 10.8 12.0 89 1.0 SE 19 22 10 12 1019.9 1019.4 -
22/04:30am 13.5 10.9 12.1 91 0.8 SE 17 20 9 11 1019.6 1019.1 -
22/04:00am 13.3 10.7 11.9 91 0.8 SE 17 20 9 11 1019.2 1018.7 -
22/03:30am 12.9 10.6 11.6 92 0.7 SE 15 17 8 9 1019.4 1018.9 -
22/03:00am 12.6 10.5 11.0 90 0.8 SE 13 17 7 9 1019.4 1018.9 -
22/02:30am 12.5 10.6 10.6 88 1.0 ESE 11 13 6 7 1019.5 1019.0 -
22/02:00am 13.2 11.3 10.6 84 1.4 ESE 11 11 6 6 1019.7 1019.2 -
22/01:30am 14.5 12.8 11.3 81 1.7 ESE 11 13 6 7 1019.9 1019.4 -
22/01:00am 15.3 13.4 11.7 79 2.0 SE 13 19 7 10 1019.8 1019.3 -
22/12:30am 15.4 12.9 11.0 75 2.4 ESE 15 19 8 10 1020.2 1019.7 -
22/12:00am 15.0 12.2 10.0 72 2.6 SE 15 19 8 10 1020.3 1019.8 -
 
Date/Time
EST
Temp
°C
App
Temp
°C
Dew
Point
Rel
Hum
%
Delta-T
°C
Wind Press
QNH
hPa
Press
MSL
hPa
Rain
since 9 am
mm
Dir
 
Spd
km/h
Gust
km/h
Spd
kts
Gust
kts
21/11:30pm 14.5 11.4 8.9 69 2.9 SE 15 17 8 9 1020.6 1020.1 -
21/11:00pm 14.9 11.7 8.6 66 3.2 SE 15 17 8 9 1020.5 1020.0 -
21/10:30pm 15.4 12.7 7.4 59 4.0 ESE 11 13 6 7 1020.4 1019.9 -
21/10:00pm 16.2 12.7 7.2 55 4.5 ESE 15 17 8 9 1020.1 1019.6 -
21/09:30pm 17.3 13.9 7.6 53 4.9 E 15 17 8 9 1019.9 1019.4 -
21/09:00pm 18.4 14.6 7.5 49 5.6 E 17 20 9 11 1019.7 1019.2 -
21/08:30pm 18.4 15.4 7.8 50 5.5 E 13 17 7 9 1019.5 1019.0 -
21/08:00pm 19.1 15.7 7.5 47 6.0 ENE 15 19 8 10 1019.0 1018.5 -
21/07:30pm 19.5 16.5 7.6 46 6.2 E 13 15 7 8 1018.6 1018.1 -
21/07:00pm 21.0 16.7 8.0 43 6.8 ESE 20 26 11 14 1018.2 1017.7 -
21/06:30pm 21.9 18.1 7.7 40 7.5 SE 17 24 9 13 1017.8 1017.3 -
21/06:00pm 22.2 18.6 6.8 37 8.0 ESE 15 20 8 11 1017.3 1016.8 -
21/05:30pm 23.4 20.1 6.2 33 8.9 E 13 17 7 9 1017.0 1016.4 -
21/05:00pm 23.7 19.7 6.5 33 8.9 E 17 26 9 14 1016.8 1016.2 -
21/04:30pm 24.3 21.1 7.0 33 9.1 SE 13 28 7 15 1016.6 1016.1 -
21/04:00pm 24.6 21.4 6.8 32 9.3 E 13 20 7 11 1016.4 1015.9 -
21/03:30pm 24.6 20.3 6.8 32 9.4 E 19 28 10 15 1016.2 1015.7 -
21/03:00pm 24.6 20.0 6.4 31 9.5 ESE 20 32 11 17 1016.4 1015.9 -
21/02:30pm 24.9 20.3 6.6 31 9.6 SE 20 28 11 15 1016.6 1016.1 -
21/02:00pm 24.7 20.3 7.4 33 9.2 ENE 20 24 11 13 1017.0 1016.4 -
21/01:30pm 24.3 19.9 7.4 34 9.0 ESE 20 30 11 16 1017.4 1016.9 -
21/12:30pm 22.9 18.0 7.0 36 8.3 E 22 30 12 16 1018.6 1018.1 -
21/11:30am 21.5 18.4 8.7 44 6.8 E 15 26 8 14 1019.6 1019.1 0.0
21/11:00am 21.2 17.9 9.4 47 6.4 E 17 26 9 14 1020.1 1019.6 0.0
21/10:30am 20.2 16.3 8.5 47 6.2 E 19 30 10 16 1020.4 1019.9 0.0
21/10:00am 19.3 15.8 8.9 51 5.5 E 17 24 9 13 1020.6 1020.1 0.0
21/09:30am 18.5 16.1 10.1 58 4.5 ESE 13 20 7 11 1020.6 1020.1 0.0
21/09:00am 17.0 14.1 9.7 62 3.9 ESE 15 19 8 10 1020.4 1019.9 0.0
21/08:30am 15.9 12.5 9.1 64 3.5 SE 17 19 9 10 1020.5 1020.0 0.0
21/08:00am 14.6 12.0 9.4 71 2.7 SE 13 17 7 9 1020.3 1019.8 0.0
21/07:30am 11.7 11.2 9.3 85 1.2 S 2 7 1 4 1020.0 1019.5 0.0
21/07:00am 7.9 7.2 6.8 93 0.5 CALM 0 0 0 0 1019.7 1019.2 0.0
21/06:30am 6.7 5.7 5.7 93 0.5 CALM 0 0 0 0 1019.3 1018.8 0.0
21/06:00am 7.4 5.2 5.4 87 0.9 NW 6 7 3 4 1019.0 1018.5 0.0
21/05:30am 8.3 7.0 5.8 84 1.1 S 2 6 1 3 1018.7 1018.2 0.0
21/05:00am 9.8 6.9 6.7 81 1.5 SSE 11 13 6 7 1018.5 1018.0 0.0
21/04:30am 10.4 7.3 7.1 80 1.6 S 13 15 7 8 1018.4 1017.9 0.0
21/04:00am 10.1 6.6 7.0 81 1.5 S 15 17 8 9 1018.1 1017.6 0.0
21/03:30am 10.0 6.4 6.9 81 1.5 S 15 17 8 9 1018.0 1017.5 0.0
21/03:00am 10.1 6.9 6.8 80 1.6 S 13 15 7 8 1018.4 1017.9 0.0
21/02:30am 9.5 6.2 6.6 82 1.4 SSE 13 17 7 9 1018.3 1017.8 0.0
21/02:00am 10.4 6.8 6.7 78 1.8 SSE 15 15 8 8 1018.6 1018.1 0.0
21/01:30am 9.9 6.9 6.2 78 1.7 SSE 11 13 6 7 1018.8 1018.3 0.0
21/01:00am 10.6 8.5 6.6 76 1.9 SE 7 9 4 5 1019.2 1018.7 0.0
21/12:30am 10.9 8.0 6.5 74 2.1 ESE 11 13 6 7 1019.2 1018.7 0.0
21/12:00am 11.5 8.6 6.6 72 2.3 ESE 11 13 6 7 1019.5 1019.0 0.0
 
Date/Time
EST
Temp
°C
App
Temp
°C
Dew
Point
Rel
Hum
%
Delta-T
°C
Wind Press
QNH
hPa
Press
MSL
hPa
Rain
since 9 am
mm
Dir
 
Spd
km/h
Gust
km/h
Spd
kts
Gust
kts
20/11:30pm 11.9 8.6 6.4 69 2.6 SSE 13 15 7 8 1019.3 1018.8 0.0
20/11:00pm 11.7 8.3 6.0 68 2.7 ESE 13 15 7 8 1019.2 1018.7 0.0
20/10:30pm 13.3 11.1 5.5 59 3.7 E 6 7 3 4 1019.4 1018.9 0.0
20/10:00pm 13.3 10.8 3.7 52 4.4 NE 6 7 3 4 1019.5 1019.0 0.0
20/09:30pm 14.6 10.4 3.7 48 5.0 E 15 20 8 11 1019.3 1018.8 0.0
20/09:00pm 13.8 9.9 3.6 50 4.7 ESE 13 15 7 8 1019.0 1018.5 0.0
20/08:30pm 15.1 11.1 3.0 44 5.5 E 13 15 7 8 1018.9 1018.4 0.0
20/08:00pm 15.8 11.8 2.6 41 6.0 E 13 13 7 7 1018.6 1018.1 0.0
20/07:30pm 16.6 12.6 2.6 39 6.4 E 13 15 7 8 1018.4 1017.9 0.0
20/07:00pm 17.3 13.2 2.5 37 6.8 E 13 15 7 8 1018.0 1017.5 0.0
20/06:30pm 16.9 13.2 2.5 38 6.6 E 11 13 6 7 1017.7 1017.2 0.0
20/06:00pm 19.8 16.0 1.7 30 8.3 E 11 15 6 8 1017.4 1016.9 0.0
20/05:30pm 22.0 18.5 1.1 25 9.7 E 9 19 5 10 1017.2 1016.7 0.0
20/05:00pm 22.9 19.0 1.3 24 10.1 ESE 11 17 6 9 1017.0 1016.4 0.0
20/04:30pm 23.2 19.3 0.9 23 10.4 S 11 20 6 11 1016.9 1016.3 0.0
20/04:00pm 23.4 19.7 -0.1 21 10.8 SE 9 15 5 8 1016.6 1016.1 0.0
20/03:30pm 23.5 19.9 0.6 22 10.7 SE 9 17 5 9 1016.5 1016.0 0.0
20/03:00pm 23.0 18.6 0.2 22 10.5 S 13 17 7 9 1016.8 1016.2 0.0
20/02:30pm 23.0 19.0 0.8 23 10.3 SE 11 17 6 9 1017.0 1016.4 0.0
20/02:00pm 23.2 19.7 1.5 24 10.2 NE 9 17 5 9 1017.4 1016.9 0.0

Other Formats:

Comma delimited format used in spreadsheet applications
http://www.bom.gov.au/fwo/IDQ60801/IDQ60801.94397.axf

JavaScript Object Notation format (JSON) in row-major order
http://www.bom.gov.au/fwo/IDQ60801/IDQ60801.94397.json